createdAt,value
2022-09-20T00:00:49.350Z,66.96
2022-09-20T00:03:19.568Z,66.35
2022-09-20T00:05:49.258Z,66.08
2022-09-20T00:08:18.930Z,66.35
2022-09-20T00:10:48.424Z,66.83
2022-09-20T00:13:17.821Z,66.18
2022-09-20T00:15:49.825Z,66.26
2022-09-20T00:18:19.222Z,66.63
2022-09-20T00:20:48.836Z,66.01
2022-09-20T00:23:18.772Z,65.58
2022-09-20T00:25:48.189Z,65.92
2022-09-20T00:28:17.585Z,65.76
2022-09-20T00:30:49.664Z,65.98
2022-09-20T00:33:19.074Z,65.82
2022-09-20T00:35:45.996Z,65.87
2022-09-20T00:38:16.218Z,66.03
2022-09-20T00:40:46.364Z,66.06
2022-09-20T00:43:17.521Z,66.07
2022-09-20T00:45:49.642Z,65.97
2022-09-20T00:48:21.348Z,66.23
2022-09-20T00:50:53.739Z,66.46
2022-09-20T00:53:24.186Z,66.31
2022-09-20T00:55:55.040Z,66.24
2022-09-20T00:58:24.532Z,66.74
2022-09-20T01:00:56.679Z,66.65
2022-09-20T01:03:27.170Z,66.54
2022-09-20T01:05:57.224Z,66.34
2022-09-20T01:08:26.844Z,66.38
2022-09-20T01:10:56.277Z,66.37
2022-09-20T01:13:25.723Z,66.17
2022-09-20T01:15:59.071Z,66.28
2022-09-20T01:18:28.470Z,66.35
2022-09-20T01:20:57.892Z,66.51
2022-09-20T01:23:41.395Z,66.84
2022-09-20T01:26:33.270Z,66.77
2022-09-20T01:29:12.056Z,66.83
2022-09-20T01:31:45.814Z,66.92
2022-09-20T01:34:16.693Z,66.88
2022-09-20T01:36:48.222Z,67.44
2022-09-20T01:39:21.603Z,67.40
2022-09-20T01:41:52.841Z,67.45
2022-09-20T01:44:26.396Z,67.80
2022-09-20T01:47:00.616Z,67.85
2022-09-20T01:49:32.486Z,68.09
2022-09-20T01:52:37.838Z,67.99
2022-09-20T01:55:48.692Z,67.62
2022-09-20T01:58:39.525Z,67.95
2022-09-20T02:01:48.430Z,68.00
2022-09-20T02:04:31.587Z,68.14
2022-09-20T02:07:15.077Z,68.20
2022-09-20T02:09:57.565Z,68.18
2022-09-20T02:12:44.091Z,68.06
2022-09-20T02:15:19.565Z,67.73
2022-09-20T02:17:57.956Z,68.00
2022-09-20T02:20:34.870Z,68.17
2022-09-20T02:23:15.129Z,68.38
2022-09-20T02:26:28.802Z,68.33
2022-09-20T02:29:01.832Z,68.70
2022-09-20T02:31:46.576Z,68.58
2022-09-20T02:34:49.050Z,68.23
2022-09-20T02:37:47.743Z,68.61
2022-09-20T02:40:24.477Z,68.52
2022-09-20T02:42:58.306Z,68.62
2022-09-20T02:45:30.763Z,68.57
2022-09-20T02:48:03.166Z,68.58
2022-09-20T02:50:40.451Z,68.53
2022-09-20T02:53:16.111Z,68.46
2022-09-20T02:55:49.852Z,68.28
2022-09-20T02:58:29.116Z,68.25
2022-09-20T03:01:07.153Z,68.43
2022-09-20T03:03:42.475Z,68.38
2022-09-20T03:06:17.569Z,68.34
2022-09-20T03:08:50.426Z,68.25
2022-09-20T03:11:22.489Z,68.31
2022-09-20T03:13:59.287Z,68.29
2022-09-20T03:16:34.068Z,68.65
2022-09-20T03:19:06.853Z,68.44
2022-09-20T03:21:44.938Z,68.23
2022-09-20T03:24:19.272Z,68.26
2022-09-20T03:26:53.822Z,68.01
2022-09-20T03:29:28.942Z,67.97
2022-09-20T03:32:04.376Z,67.94
2022-09-20T03:34:41.409Z,67.58
2022-09-20T03:37:34.234Z,67.86
2022-09-20T03:40:19.880Z,67.57
2022-09-20T03:42:50.426Z,67.92
2022-09-20T03:45:30.734Z,68.05
2022-09-20T03:48:20.977Z,67.70
2022-09-20T03:50:57.996Z,68.06
2022-09-20T03:53:42.377Z,67.81
2022-09-20T03:56:25.733Z,67.67
2022-09-20T03:59:05.721Z,67.61
2022-09-20T04:01:47.476Z,67.90
2022-09-20T04:04:19.264Z,68.13
2022-09-20T04:06:57.226Z,68.35
2022-09-20T04:09:52.304Z,68.50
2022-09-20T04:12:27.190Z,68.64
2022-09-20T04:14:59.982Z,68.31
2022-09-20T04:17:34.048Z,68.49
2022-09-20T04:20:05.589Z,68.28
2022-09-20T04:22:35.384Z,68.73
2022-09-20T04:25:15.104Z,68.47
2022-09-20T04:27:45.800Z,68.48
2022-09-20T04:30:20.078Z,68.42
2022-09-20T04:32:52.317Z,68.84
2022-09-20T04:35:41.962Z,68.83
2022-09-20T04:38:11.434Z,68.88
2022-09-20T04:40:55.997Z,68.75
2022-09-20T04:44:00.678Z,69.05
2022-09-20T04:46:42.730Z,69.13
2022-09-20T04:49:40.250Z,69.11
2022-09-20T04:52:42.541Z,68.58
2022-09-20T04:55:26.925Z,68.04
2022-09-20T04:58:26.905Z,68.58
2022-09-20T05:01:17.103Z,68.80
2022-09-20T05:04:15.792Z,68.80
2022-09-20T05:07:00.525Z,68.84
2022-09-20T05:09:54.537Z,69.03
2022-09-20T05:12:49.197Z,69.09
2022-09-20T05:15:30.744Z,69.50
2022-09-20T05:18:19.619Z,69.56
2022-09-20T05:20:54.450Z,69.52
2022-09-20T05:23:31.367Z,69.66
2022-09-20T05:26:12.322Z,70.00
2022-09-20T05:28:49.744Z,70.27
2022-09-20T05:31:23.031Z,69.97
2022-09-20T05:33:59.447Z,70.36
2022-09-20T05:36:34.668Z,70.09
2022-09-20T05:39:07.751Z,70.48
2022-09-20T05:41:40.299Z,70.47
2022-09-20T05:44:14.396Z,70.29
2022-09-20T05:46:48.877Z,70.02
2022-09-20T05:49:29.068Z,70.05
2022-09-20T05:52:14.886Z,69.95
2022-09-20T05:55:04.020Z,69.76
2022-09-20T05:57:41.976Z,69.33
2022-09-20T06:00:13.552Z,69.21
2022-09-20T06:02:47.591Z,69.47
2022-09-20T06:05:22.690Z,69.51
2022-09-20T06:08:26.971Z,69.10
2022-09-20T06:11:02.880Z,69.11
2022-09-20T06:13:38.760Z,69.27
2022-09-20T06:16:09.134Z,69.47
2022-09-20T06:18:41.085Z,70.05
2022-09-20T06:21:19.464Z,70.09
2022-09-20T06:23:48.889Z,69.83
2022-09-20T06:26:20.187Z,69.96
2022-09-20T06:28:50.314Z,69.87
2022-09-20T06:31:19.740Z,69.60
2022-09-20T06:33:52.660Z,70.46
2022-09-20T06:36:38.753Z,71.86
2022-09-20T06:39:23.865Z,72.09
2022-09-20T06:41:53.290Z,74.10
2022-09-20T06:44:22.709Z,74.15
2022-09-20T06:46:54.415Z,73.69
2022-09-20T06:49:24.118Z,73.23
2022-09-20T06:51:56.684Z,72.87
2022-09-20T06:54:27.149Z,72.52
2022-09-20T06:56:56.564Z,71.58
2022-09-20T06:59:25.997Z,71.39
2022-09-20T07:01:55.811Z,72.00
2022-09-20T07:04:26.844Z,71.22
2022-09-20T07:07:06.114Z,70.34
2022-09-20T07:09:38.357Z,70.56
2022-09-20T07:12:12.446Z,69.98
2022-09-20T07:14:43.071Z,68.68
2022-09-20T07:17:13.305Z,67.55
2022-09-20T07:19:42.714Z,66.62
2022-09-20T07:22:14.726Z,66.31
2022-09-20T07:24:44.973Z,67.01
2022-09-20T07:27:14.381Z,65.07
2022-09-20T07:29:43.853Z,65.03
2022-09-20T07:32:13.408Z,64.68
2022-09-20T07:34:42.821Z,64.17
2022-09-20T07:37:14.825Z,63.48
2022-09-20T07:39:45.682Z,61.96
2022-09-20T07:42:15.084Z,62.58
2022-09-20T07:44:44.911Z,62.92
2022-09-20T07:47:15.062Z,62.07
2022-09-20T07:49:44.589Z,61.77
2022-09-20T07:52:16.590Z,62.45
2022-09-20T07:54:46.018Z,61.38
2022-09-20T07:57:15.489Z,59.46
2022-09-20T07:59:44.914Z,60.97
2022-09-20T08:02:16.494Z,62.48
2022-09-20T08:04:47.288Z,62.62
2022-09-20T08:07:19.297Z,62.86
2022-09-20T08:09:48.914Z,62.66
2022-09-20T08:15:12.020Z,63.05
2022-09-20T08:17:41.677Z,61.83
2022-09-20T08:20:11.936Z,61.41
2022-09-20T08:22:47.519Z,60.56
2022-09-20T08:25:26.068Z,58.11
2022-09-20T08:27:56.170Z,57.97
2022-09-20T08:30:27.767Z,55.25
2022-09-20T08:32:57.339Z,54.54
2022-09-20T08:35:30.535Z,53.62
2022-09-20T08:40:52.140Z,55.34
2022-09-20T08:43:22.861Z,56.02
2022-09-20T08:45:52.589Z,55.70
2022-09-20T08:48:28.538Z,56.70
2022-09-20T08:50:58.391Z,57.05
2022-09-20T08:53:41.148Z,57.95
2022-09-20T08:56:24.888Z,58.52
2022-09-20T08:59:04.276Z,58.72
2022-09-20T09:01:35.833Z,56.88
2022-09-20T09:04:15.762Z,57.47
2022-09-20T09:06:45.610Z,57.33
2022-09-20T09:09:39.851Z,56.73
2022-09-20T09:12:10.043Z,57.47
2022-09-20T09:14:54.927Z,55.05
2022-09-20T09:17:29.531Z,53.94
2022-09-20T09:20:02.512Z,50.62
2022-09-20T09:22:35.285Z,50.32
2022-09-20T09:25:34.800Z,50.14
2022-09-20T09:28:18.862Z,51.25
2022-09-20T09:30:49.645Z,51.36
2022-09-20T09:33:22.792Z,50.86
2022-09-20T09:35:59.681Z,50.62
2022-09-20T09:38:30.374Z,50.72
2022-09-20T09:41:03.149Z,49.83
2022-09-20T09:43:35.382Z,50.36
2022-09-20T09:46:21.353Z,50.44
2022-09-20T09:48:52.157Z,48.30
2022-09-20T09:51:23.501Z,49.09
2022-09-20T09:53:55.166Z,47.91
2022-09-20T09:56:51.169Z,49.04
2022-09-20T09:59:33.038Z,50.47
2022-09-20T10:02:05.042Z,49.75
2022-09-20T10:04:36.967Z,47.58
2022-09-20T10:07:09.456Z,47.69
2022-09-20T10:09:59.420Z,47.66
2022-09-20T10:12:51.685Z,48.01
2022-09-20T10:15:33.420Z,48.32
2022-09-20T10:18:17.248Z,47.20
2022-09-20T10:21:01.334Z,47.97
2022-09-20T10:24:04.698Z,46.69
2022-09-20T10:26:56.360Z,47.41
2022-09-20T10:29:40.033Z,46.96
2022-09-20T10:32:31.926Z,46.70
2022-09-20T10:35:25.672Z,46.42
2022-09-20T10:38:14.517Z,46.11
2022-09-20T10:41:05.490Z,46.57
2022-09-20T10:43:42.968Z,46.13
2022-09-20T10:46:31.831Z,46.73
2022-09-20T10:49:06.751Z,46.96
2022-09-20T10:51:43.233Z,45.42
2022-09-20T10:54:16.003Z,46.08
2022-09-20T10:56:49.381Z,45.24
2022-09-20T10:59:27.857Z,44.90
2022-09-20T11:02:09.086Z,45.11
2022-09-20T11:04:47.925Z,44.56
2022-09-20T11:07:20.300Z,45.32
2022-09-20T11:09:51.508Z,43.98
2022-09-20T11:12:25.973Z,42.82
2022-09-20T11:14:57.123Z,43.78
2022-09-20T11:17:31.050Z,41.53
2022-09-20T11:20:07.108Z,42.32
2022-09-20T11:22:40.170Z,41.76
2022-09-20T11:25:19.991Z,42.21
2022-09-20T11:27:52.108Z,42.61
2022-09-20T11:30:21.795Z,43.65
2022-09-20T11:32:55.708Z,44.65
2022-09-20T11:35:30.038Z,42.27
2022-09-20T11:38:04.177Z,41.25
2022-09-20T11:40:34.947Z,42.24
2022-09-20T11:43:06.850Z,44.26
2022-09-20T11:45:36.301Z,44.06
2022-09-20T11:48:11.344Z,45.90
2022-09-20T11:50:50.196Z,44.33
2022-09-20T11:53:27.697Z,44.85
2022-09-20T11:55:59.804Z,45.54
2022-09-20T11:58:29.214Z,43.96
2022-09-20T12:00:59.280Z,43.68
2022-09-20T12:03:34.214Z,42.67
2022-09-20T12:06:04.042Z,40.54
2022-09-20T12:08:35.179Z,41.13
2022-09-20T12:11:05.383Z,41.62
2022-09-20T12:13:38.918Z,41.30
2022-09-20T12:16:11.350Z,41.11
2022-09-20T12:19:03.930Z,40.34
2022-09-20T12:21:33.385Z,41.32
2022-09-20T12:24:23.639Z,41.18
2022-09-20T12:26:59.393Z,41.98
2022-09-20T12:30:10.365Z,41.00
2022-09-20T12:32:48.043Z,40.61
2022-09-20T12:36:02.005Z,41.04
2022-09-20T12:39:02.971Z,42.41
2022-09-20T12:41:46.382Z,41.98
2022-09-20T12:44:29.964Z,41.31
2022-09-20T12:47:00.592Z,42.03
2022-09-20T12:49:56.145Z,42.21
2022-09-20T12:52:43.244Z,42.78
2022-09-20T12:55:16.636Z,41.38
2022-09-20T12:57:46.406Z,42.29
2022-09-20T13:00:34.169Z,40.60
2022-09-20T13:03:04.018Z,41.16
2022-09-20T13:05:39.216Z,41.69
2022-09-20T13:08:15.834Z,40.41
2022-09-20T13:10:52.065Z,40.69
2022-09-20T13:13:40.173Z,40.20
2022-09-20T13:16:09.700Z,39.91
2022-09-20T13:18:39.122Z,40.23
2022-09-20T13:21:09.096Z,41.70
2022-09-20T13:23:47.175Z,40.77
2022-09-20T13:26:19.504Z,41.23
2022-09-20T13:28:51.656Z,40.87
2022-09-20T13:31:33.912Z,40.76
2022-09-20T13:34:23.340Z,41.01
2022-09-20T13:36:56.365Z,40.63
2022-09-20T13:39:31.072Z,41.15
2022-09-20T13:42:09.150Z,41.23
2022-09-20T13:44:38.676Z,42.38
2022-09-20T13:47:25.978Z,41.07
2022-09-20T13:49:55.538Z,40.73
2022-09-20T13:52:28.591Z,41.07
2022-09-20T13:54:58.015Z,41.30
2022-09-20T13:57:30.898Z,41.35
2022-09-20T14:00:00.400Z,42.09
2022-09-20T14:02:30.738Z,42.52
2022-09-20T14:05:02.238Z,42.31
2022-09-20T14:07:31.743Z,43.71
2022-09-20T14:10:01.675Z,44.11
2022-09-20T14:12:33.952Z,43.59
2022-09-20T14:15:03.389Z,44.47
2022-09-20T14:17:32.899Z,45.00
2022-09-20T14:20:02.412Z,44.28
2022-09-20T14:22:31.881Z,45.12
2022-09-20T14:25:03.310Z,45.31
2022-09-20T14:27:35.376Z,44.51
2022-09-20T14:30:04.869Z,44.75
2022-09-20T14:32:40.418Z,44.16
2022-09-20T14:35:15.705Z,44.24
2022-09-20T14:37:46.122Z,45.42
2022-09-20T14:40:26.340Z,45.22
2022-09-20T14:43:02.000Z,46.11
2022-09-20T14:45:33.086Z,46.02
2022-09-20T14:48:10.714Z,46.91
2022-09-20T14:50:41.476Z,46.10
2022-09-20T14:53:26.679Z,45.95
2022-09-20T14:56:09.814Z,46.30
2022-09-20T14:59:22.039Z,46.38
2022-09-20T15:02:03.496Z,45.50
2022-09-20T15:04:35.434Z,45.94
2022-09-20T15:07:06.325Z,46.87
2022-09-20T15:09:35.881Z,45.95
2022-09-20T15:12:06.285Z,46.58
2022-09-20T15:14:40.452Z,46.40
2022-09-20T15:17:09.886Z,45.83
2022-09-20T15:19:42.017Z,46.07
2022-09-20T15:22:11.712Z,45.43
2022-09-20T15:24:41.208Z,46.50
2022-09-20T15:27:10.816Z,46.72
2022-09-20T15:29:42.794Z,46.54
2022-09-20T15:32:12.708Z,46.65
2022-09-20T15:34:42.101Z,46.65
2022-09-20T15:37:11.518Z,46.34
2022-09-20T15:39:40.908Z,46.92
2022-09-20T15:42:11.102Z,47.83
2022-09-20T15:44:43.091Z,47.29
2022-09-20T15:47:15.928Z,47.97
2022-09-20T15:49:46.994Z,47.59
2022-09-20T15:52:16.413Z,48.50
2022-09-20T15:54:46.180Z,48.01
2022-09-20T15:57:15.966Z,47.89
2022-09-20T15:59:48.558Z,48.66
2022-09-20T16:02:18.045Z,49.36
2022-09-20T16:04:47.557Z,48.44
2022-09-20T16:07:17.644Z,49.03
2022-09-20T16:09:47.033Z,48.98
2022-09-20T16:12:16.554Z,48.26
2022-09-20T16:14:48.580Z,48.41
2022-09-20T16:17:18.130Z,47.96
2022-09-20T16:19:46.074Z,48.82
2022-09-20T16:22:16.093Z,49.16
2022-09-20T16:24:45.771Z,49.60
2022-09-20T16:27:18.355Z,49.67
2022-09-20T16:29:50.460Z,50.13
2022-09-20T16:32:19.890Z,49.25
2022-09-20T16:34:49.893Z,49.49
2022-09-20T16:37:19.406Z,49.69
2022-09-20T16:39:48.842Z,50.13
2022-09-20T16:42:18.641Z,49.76
2022-09-20T16:44:50.706Z,49.60
2022-09-20T16:47:22.302Z,50.10
2022-09-20T16:49:54.177Z,50.80
2022-09-20T16:52:26.518Z,50.36
2022-09-20T16:54:56.138Z,50.73
2022-09-20T16:57:25.728Z,50.72
2022-09-20T16:59:57.877Z,51.32
2022-09-20T17:02:27.297Z,51.12
2022-09-20T17:04:56.812Z,51.59
2022-09-20T17:07:26.380Z,51.77
2022-09-20T17:10:01.309Z,51.77
2022-09-20T17:12:33.927Z,52.41
2022-09-20T17:15:06.284Z,52.80
2022-09-20T17:17:36.285Z,53.08
2022-09-20T17:20:07.360Z,52.51
2022-09-20T17:22:36.856Z,52.82
2022-09-20T17:25:07.188Z,53.07
2022-09-20T17:27:39.800Z,53.58
2022-09-20T17:30:13.369Z,53.76
2022-09-20T17:32:48.167Z,54.32
2022-09-20T17:35:18.548Z,53.90
2022-09-20T17:37:48.093Z,54.22
2022-09-20T17:40:17.704Z,54.34
2022-09-20T17:42:47.498Z,54.92
2022-09-20T17:45:19.651Z,54.53
2022-09-20T17:47:49.068Z,54.40
2022-09-20T17:50:18.678Z,55.00
2022-09-20T17:52:48.479Z,55.35
2022-09-20T17:55:18.073Z,55.74
2022-09-20T17:57:47.654Z,55.80
2022-09-20T18:00:20.150Z,55.90
2022-09-20T18:02:49.558Z,56.06
2022-09-20T18:05:19.234Z,56.21
2022-09-20T18:07:48.636Z,56.23
2022-09-20T18:10:18.076Z,56.57
2022-09-20T18:12:47.524Z,57.04
2022-09-20T18:15:20.850Z,57.62
2022-09-20T18:17:54.404Z,58.03
2022-09-20T18:20:28.453Z,58.34
2022-09-20T18:23:00.919Z,58.51
2022-09-20T18:25:51.486Z,58.83
2022-09-20T18:28:24.262Z,59.28
2022-09-20T18:31:05.720Z,59.01
2022-09-20T18:33:37.325Z,58.66
2022-09-20T18:36:10.961Z,58.83
2022-09-20T18:38:42.076Z,58.90
2022-09-20T18:41:14.613Z,58.93
2022-09-20T18:43:47.779Z,59.32
2022-09-20T18:46:25.861Z,59.12
2022-09-20T18:48:55.935Z,59.00
2022-09-20T18:51:25.594Z,59.19
2022-09-20T18:53:56.040Z,59.10
2022-09-20T18:56:27.036Z,59.22
2022-09-20T18:58:57.812Z,58.88
2022-09-20T19:01:45.631Z,59.12
2022-09-20T19:04:28.247Z,59.30
2022-09-20T19:07:02.733Z,58.94
2022-09-20T19:09:38.443Z,58.50
2022-09-20T19:12:17.084Z,58.51
2022-09-20T19:14:58.663Z,59.06
2022-09-20T19:17:50.502Z,60.17
2022-09-20T19:20:28.017Z,61.80
2022-09-20T19:23:09.776Z,62.01
2022-09-20T19:25:44.586Z,61.58
2022-09-20T19:28:19.681Z,61.55
2022-09-20T19:30:52.261Z,61.47
2022-09-20T19:33:27.117Z,61.01
2022-09-20T19:35:59.178Z,60.83
2022-09-20T19:38:37.908Z,60.55
2022-09-20T19:41:27.656Z,60.03
2022-09-20T19:44:08.217Z,60.03
2022-09-20T19:46:47.543Z,60.58
2022-09-20T19:49:23.157Z,61.02
2022-09-20T19:51:56.678Z,60.55
2022-09-20T19:54:30.180Z,60.84
2022-09-20T19:57:01.689Z,60.62
2022-09-20T19:59:32.757Z,60.21
2022-09-20T20:02:02.602Z,60.06
2022-09-20T20:04:35.500Z,59.97
2022-09-20T20:07:07.456Z,59.93
2022-09-20T20:09:40.313Z,59.29
2022-09-20T20:12:14.625Z,59.15
2022-09-20T20:14:50.424Z,59.12
2022-09-20T20:17:27.279Z,59.64
2022-09-20T20:20:09.080Z,59.31
2022-09-20T20:23:07.393Z,59.02
2022-09-20T20:25:39.501Z,59.53
2022-09-20T20:28:08.890Z,59.76
2022-09-20T20:30:38.325Z,60.05
2022-09-20T20:33:08.142Z,60.75
2022-09-20T20:35:40.145Z,60.81
2022-09-20T20:38:10.540Z,61.14
2022-09-20T20:40:40.758Z,60.87
2022-09-20T20:43:10.300Z,60.84
2022-09-20T20:45:40.118Z,60.67
2022-09-20T20:48:09.542Z,60.47
2022-09-20T20:50:41.514Z,60.66
2022-09-20T20:53:10.912Z,60.39
2022-09-20T20:55:41.268Z,60.46
2022-09-20T20:58:10.821Z,60.52
2022-09-20T21:00:40.240Z,61.03
2022-09-20T21:03:11.041Z,61.35
2022-09-20T21:05:43.312Z,61.03
2022-09-20T21:08:12.966Z,61.02
2022-09-20T21:10:42.367Z,61.00
2022-09-20T21:13:11.767Z,60.45
2022-09-20T21:15:41.570Z,60.45
2022-09-20T21:18:11.039Z,59.90
2022-09-20T21:20:43.638Z,60.08
2022-09-20T21:23:13.086Z,60.14
2022-09-20T21:25:42.611Z,60.45
2022-09-20T21:28:12.034Z,60.37
2022-09-20T21:30:41.463Z,59.95
2022-09-20T21:33:11.533Z,60.24
2022-09-20T21:35:43.554Z,60.49
2022-09-20T21:38:13.091Z,60.42
2022-09-20T21:40:43.222Z,60.28
2022-09-20T21:43:14.029Z,60.17
2022-09-20T21:45:46.490Z,59.36
2022-09-20T21:48:15.910Z,59.60
2022-09-20T21:50:48.097Z,58.77
2022-09-20T21:53:18.830Z,59.16
2022-09-20T21:55:48.230Z,59.02
2022-09-20T21:58:18.128Z,58.96
2022-09-20T22:00:55.620Z,59.58
2022-09-20T22:03:25.081Z,59.38
2022-09-20T22:05:57.056Z,59.94
2022-09-20T22:08:27.408Z,60.10
2022-09-20T22:11:00.263Z,60.72
2022-09-20T22:13:29.710Z,61.49
2022-09-20T22:16:05.806Z,61.57
2022-09-20T22:18:39.372Z,61.65
2022-09-20T22:21:12.405Z,61.62
2022-09-20T22:23:41.817Z,61.53
2022-09-20T22:26:11.936Z,61.33
2022-09-20T22:28:41.424Z,61.73
2022-09-20T22:31:11.653Z,61.01
2022-09-20T22:33:43.364Z,61.36
2022-09-20T22:36:16.643Z,61.77
2022-09-20T22:38:46.249Z,61.68
2022-09-20T22:41:15.970Z,61.92
2022-09-20T22:43:45.440Z,61.83
2022-09-20T22:46:15.787Z,61.81
2022-09-20T22:48:45.369Z,62.18
2022-09-20T22:51:18.123Z,62.34
2022-09-20T22:53:47.625Z,62.07
2022-09-20T22:56:18.737Z,62.21
2022-09-20T22:58:48.847Z,62.29
2022-09-20T23:01:19.235Z,62.03
2022-09-20T23:03:50.623Z,62.35
2022-09-20T23:06:24.034Z,62.59
2022-09-20T23:08:54.244Z,62.44
2022-09-20T23:11:23.699Z,62.54
2022-09-20T23:13:55.724Z,62.76
2022-09-20T23:16:26.477Z,62.89
2022-09-20T23:18:56.161Z,63.12
2022-09-20T23:21:28.178Z,63.06
2022-09-20T23:23:58.406Z,63.18
2022-09-20T23:26:28.055Z,63.31
2022-09-20T23:28:58.558Z,63.80
2022-09-20T23:31:28.183Z,64.17
2022-09-20T23:33:59.497Z,63.84
2022-09-20T23:36:32.841Z,63.88
2022-09-20T23:39:02.369Z,63.83
2022-09-20T23:41:31.767Z,63.78
2022-09-20T23:44:01.172Z,64.01
2022-09-20T23:46:30.960Z,63.65
2022-09-20T23:49:00.360Z,63.43
2022-09-20T23:51:32.741Z,63.84
2022-09-20T23:54:02.201Z,63.86
2022-09-20T23:56:32.074Z,63.89
2022-09-20T23:59:01.480Z,63.57
